sensor_id;sensor_type;location;lat;lon;timestamp;P1;durP1;ratioP1;P2;durP2;ratioP2
56102;SDS011;41970;48.774;9.280;2023-04-15T00:00:51;4.60;;;2.60;;
56102;SDS011;41970;48.774;9.280;2023-04-15T00:03:17;3.30;;;2.50;;
56102;SDS011;41970;48.774;9.280;2023-04-15T00:05:43;3.43;;;2.80;;
56102;SDS011;41970;48.774;9.280;2023-04-15T00:08:09;5.53;;;2.70;;
56102;SDS011;41970;48.774;9.280;2023-04-15T00:10:34;2.60;;;2.40;;
56102;SDS011;41970;48.774;9.280;2023-04-15T00:13:00;5.13;;;2.80;;
56102;SDS011;41970;48.774;9.280;2023-04-15T00:15:27;3.30;;;2.53;;
56102;SDS011;41970;48.774;9.280;2023-04-15T00:17:52;5.77;;;3.37;;
56102;SDS011;41970;48.774;9.280;2023-04-15T00:20:18;3.73;;;2.50;;
56102;SDS011;41970;48.774;9.280;2023-04-15T00:22:44;3.17;;;2.50;;
56102;SDS011;41970;48.774;9.280;2023-04-15T00:25:10;5.17;;;3.33;;
56102;SDS011;41970;48.774;9.280;2023-04-15T00:27:36;6.37;;;2.60;;
56102;SDS011;41970;48.774;9.280;2023-04-15T00:30:02;4.60;;;2.75;;
56102;SDS011;41970;48.774;9.280;2023-04-15T00:32:29;4.20;;;2.88;;
56102;SDS011;41970;48.774;9.280;2023-04-15T00:34:55;2.90;;;2.60;;
56102;SDS011;41970;48.774;9.280;2023-04-15T00:37:21;4.63;;;2.65;;
56102;SDS011;41970;48.774;9.280;2023-04-15T00:39:47;3.90;;;3.08;;
56102;SDS011;41970;48.774;9.280;2023-04-15T00:42:13;4.40;;;2.80;;
56102;SDS011;41970;48.774;9.280;2023-04-15T00:44:39;5.20;;;2.87;;
56102;SDS011;41970;48.774;9.280;2023-04-15T00:47:05;2.90;;;2.70;;
56102;SDS011;41970;48.774;9.280;2023-04-15T00:49:31;5.65;;;3.15;;
56102;SDS011;41970;48.774;9.280;2023-04-15T00:51:57;4.27;;;3.10;;
56102;SDS011;41970;48.774;9.280;2023-04-15T00:54:22;5.07;;;2.73;;
56102;SDS011;41970;48.774;9.280;2023-04-15T00:56:48;2.50;;;2.30;;
56102;SDS011;41970;48.774;9.280;2023-04-15T00:59:14;4.70;;;3.37;;
56102;SDS011;41970;48.774;9.280;2023-04-15T01:01:41;3.78;;;2.80;;
56102;SDS011;41970;48.774;9.280;2023-04-15T01:04:09;5.82;;;3.13;;
56102;SDS011;41970;48.774;9.280;2023-04-15T01:06:36;4.50;;;2.38;;
56102;SDS011;41970;48.774;9.280;2023-04-15T01:09:02;3.75;;;2.15;;
56102;SDS011;41970;48.774;9.280;2023-04-15T01:11:28;4.23;;;2.90;;
56102;SDS011;41970;48.774;9.280;2023-04-15T01:13:58;10.52;;;2.90;;
56102;SDS011;41970;48.774;9.280;2023-04-15T01:16:24;3.60;;;2.80;;
56102;SDS011;41970;48.774;9.280;2023-04-15T01:18:51;3.00;;;2.20;;
56102;SDS011;41970;48.774;9.280;2023-04-15T01:21:17;3.40;;;2.67;;
56102;SDS011;41970;48.774;9.280;2023-04-15T01:23:44;4.13;;;2.58;;
56102;SDS011;41970;48.774;9.280;2023-04-15T01:26:12;2.65;;;2.45;;
56102;SDS011;41970;48.774;9.280;2023-04-15T01:28:38;4.35;;;2.67;;
56102;SDS011;41970;48.774;9.280;2023-04-15T01:31:05;6.27;;;3.80;;
56102;SDS011;41970;48.774;9.280;2023-04-15T01:33:32;6.72;;;3.65;;
56102;SDS011;41970;48.774;9.280;2023-04-15T01:35:57;4.00;;;3.20;;
56102;SDS011;41970;48.774;9.280;2023-04-15T01:38:25;8.43;;;3.23;;
56102;SDS011;41970;48.774;9.280;2023-04-15T01:40:51;4.20;;;3.80;;
56102;SDS011;41970;48.774;9.280;2023-04-15T01:43:18;5.18;;;3.25;;
56102;SDS011;41970;48.774;9.280;2023-04-15T01:45:43;7.47;;;3.73;;
56102;SDS011;41970;48.774;9.280;2023-04-15T01:48:09;3.40;;;2.92;;
56102;SDS011;41970;48.774;9.280;2023-04-15T01:50:36;4.88;;;3.30;;
56102;SDS011;41970;48.774;9.280;2023-04-15T01:53:02;4.00;;;3.57;;
56102;SDS011;41970;48.774;9.280;2023-04-15T01:55:28;3.95;;;3.35;;
56102;SDS011;41970;48.774;9.280;2023-04-15T01:57:55;4.22;;;3.40;;
56102;SDS011;41970;48.774;9.280;2023-04-15T02:00:20;6.30;;;3.67;;
56102;SDS011;41970;48.774;9.280;2023-04-15T02:02:47;6.65;;;3.80;;
56102;SDS011;41970;48.774;9.280;2023-04-15T02:05:13;4.65;;;3.47;;
56102;SDS011;41970;48.774;9.280;2023-04-15T02:07:40;4.72;;;3.25;;
56102;SDS011;41970;48.774;9.280;2023-04-15T02:10:09;4.00;;;3.28;;
56102;SDS011;41970;48.774;9.280;2023-04-15T02:12:37;6.85;;;3.10;;
56102;SDS011;41970;48.774;9.280;2023-04-15T02:15:03;3.80;;;3.40;;
56102;SDS011;41970;48.774;9.280;2023-04-15T02:17:32;6.93;;;3.63;;
56102;SDS011;41970;48.774;9.280;2023-04-15T02:20:01;5.95;;;3.88;;
56102;SDS011;41970;48.774;9.280;2023-04-15T02:22:30;4.03;;;2.92;;
56102;SDS011;41970;48.774;9.280;2023-04-15T02:24:56;6.70;;;3.47;;
56102;SDS011;41970;48.774;9.280;2023-04-15T02:27:21;4.07;;;3.60;;
56102;SDS011;41970;48.774;9.280;2023-04-15T02:29:47;3.90;;;3.60;;
56102;SDS011;41970;48.774;9.280;2023-04-15T02:32:15;5.03;;;3.95;;
56102;SDS011;41970;48.774;9.280;2023-04-15T02:34:41;3.87;;;3.23;;
56102;SDS011;41970;48.774;9.280;2023-04-15T02:37:09;6.93;;;3.77;;
56102;SDS011;41970;48.774;9.280;2023-04-15T02:39:37;6.10;;;3.75;;
56102;SDS011;41970;48.774;9.280;2023-04-15T02:42:03;8.07;;;4.32;;
56102;SDS011;41970;48.774;9.280;2023-04-15T02:44:30;5.30;;;3.97;;
56102;SDS011;41970;48.774;9.280;2023-04-15T02:46:56;4.57;;;3.65;;
56102;SDS011;41970;48.774;9.280;2023-04-15T02:49:23;9.68;;;4.82;;
56102;SDS011;41970;48.774;9.280;2023-04-15T02:51:49;7.03;;;3.90;;
56102;SDS011;41970;48.774;9.280;2023-04-15T02:54:18;4.82;;;3.90;;
56102;SDS011;41970;48.774;9.280;2023-04-15T02:56:46;5.00;;;3.45;;
56102;SDS011;41970;48.774;9.280;2023-04-15T02:59:12;5.75;;;3.90;;
56102;SDS011;41970;48.774;9.280;2023-04-15T03:01:38;8.07;;;4.50;;
56102;SDS011;41970;48.774;9.280;2023-04-15T03:04:04;5.80;;;3.77;;
56102;SDS011;41970;48.774;9.280;2023-04-15T03:06:31;4.90;;;3.45;;
56102;SDS011;41970;48.774;9.280;2023-04-15T03:08:57;5.57;;;3.80;;
56102;SDS011;41970;48.774;9.280;2023-04-15T03:11:24;4.97;;;3.83;;
56102;SDS011;41970;48.774;9.280;2023-04-15T03:13:51;4.10;;;3.58;;
56102;SDS011;41970;48.774;9.280;2023-04-15T03:16:17;4.43;;;3.47;;
56102;SDS011;41970;48.774;9.280;2023-04-15T03:18:42;3.80;;;3.50;;
56102;SDS011;41970;48.774;9.280;2023-04-15T03:21:08;7.87;;;3.93;;
56102;SDS011;41970;48.774;9.280;2023-04-15T03:23:34;4.77;;;3.07;;
56102;SDS011;41970;48.774;9.280;2023-04-15T03:26:03;4.97;;;4.03;;
56102;SDS011;41970;48.774;9.280;2023-04-15T03:28:29;4.88;;;3.75;;
56102;SDS011;41970;48.774;9.280;2023-04-15T03:30:55;5.10;;;4.43;;
56102;SDS011;41970;48.774;9.280;2023-04-15T03:33:20;5.33;;;4.13;;
56102;SDS011;41970;48.774;9.280;2023-04-15T03:35:46;6.80;;;3.23;;
56102;SDS011;41970;48.774;9.280;2023-04-15T03:38:12;5.00;;;3.83;;
56102;SDS011;41970;48.774;9.280;2023-04-15T03:40:39;4.20;;;3.80;;
56102;SDS011;41970;48.774;9.280;2023-04-15T03:43:05;6.88;;;5.13;;
56102;SDS011;41970;48.774;9.280;2023-04-15T03:45:31;5.63;;;4.10;;
56102;SDS011;41970;48.774;9.280;2023-04-15T03:47:57;4.20;;;3.67;;
56102;SDS011;41970;48.774;9.280;2023-04-15T03:50:23;9.50;;;4.07;;
56102;SDS011;41970;48.774;9.280;2023-04-15T03:52:49;6.27;;;3.90;;
56102;SDS011;41970;48.774;9.280;2023-04-15T03:55:14;6.07;;;3.63;;
56102;SDS011;41970;48.774;9.280;2023-04-15T03:57:41;5.87;;;4.70;;
56102;SDS011;41970;48.774;9.280;2023-04-15T04:00:07;9.30;;;4.05;;
56102;SDS011;41970;48.774;9.280;2023-04-15T04:02:36;5.38;;;3.88;;
56102;SDS011;41970;48.774;9.280;2023-04-15T04:05:02;7.43;;;4.80;;
56102;SDS011;41970;48.774;9.280;2023-04-15T04:07:28;6.53;;;5.03;;
56102;SDS011;41970;48.774;9.280;2023-04-15T04:09:56;6.50;;;4.82;;
56102;SDS011;41970;48.774;9.280;2023-04-15T04:12:22;4.50;;;4.10;;
56102;SDS011;41970;48.774;9.280;2023-04-15T04:14:47;5.00;;;4.03;;
56102;SDS011;41970;48.774;9.280;2023-04-15T04:17:16;5.87;;;4.20;;
56102;SDS011;41970;48.774;9.280;2023-04-15T04:19:42;10.07;;;4.25;;
56102;SDS011;41970;48.774;9.280;2023-04-15T04:22:07;6.47;;;4.60;;
56102;SDS011;41970;48.774;9.280;2023-04-15T04:24:33;6.40;;;5.40;;
56102;SDS011;41970;48.774;9.280;2023-04-15T04:26:59;6.87;;;4.87;;
56102;SDS011;41970;48.774;9.280;2023-04-15T04:29:25;6.97;;;4.80;;
56102;SDS011;41970;48.774;9.280;2023-04-15T04:31:51;6.53;;;4.38;;
56102;SDS011;41970;48.774;9.280;2023-04-15T04:34:16;5.77;;;4.60;;
56102;SDS011;41970;48.774;9.280;2023-04-15T04:36:42;6.77;;;4.27;;
56102;SDS011;41970;48.774;9.280;2023-04-15T04:39:08;7.13;;;4.53;;
56102;SDS011;41970;48.774;9.280;2023-04-15T04:41:34;7.20;;;4.20;;
56102;SDS011;41970;48.774;9.280;2023-04-15T04:44:00;7.83;;;5.10;;
56102;SDS011;41970;48.774;9.280;2023-04-15T04:46:25;16.50;;;14.17;;
56102;SDS011;41970;48.774;9.280;2023-04-15T04:48:51;7.10;;;4.83;;
56102;SDS011;41970;48.774;9.280;2023-04-15T04:51:17;6.90;;;4.63;;
56102;SDS011;41970;48.774;9.280;2023-04-15T04:53:43;5.23;;;4.70;;
56102;SDS011;41970;48.774;9.280;2023-04-15T04:56:09;5.63;;;4.43;;
56102;SDS011;41970;48.774;9.280;2023-04-15T04:58:35;6.00;;;5.13;;
56102;SDS011;41970;48.774;9.280;2023-04-15T05:01:00;7.13;;;5.10;;
56102;SDS011;41970;48.774;9.280;2023-04-15T05:03:27;7.13;;;5.65;;
56102;SDS011;41970;48.774;9.280;2023-04-15T05:05:52;9.30;;;5.30;;
56102;SDS011;41970;48.774;9.280;2023-04-15T05:08:18;10.77;;;5.53;;
56102;SDS011;41970;48.774;9.280;2023-04-15T05:10:44;7.70;;;5.43;;
56102;SDS011;41970;48.774;9.280;2023-04-15T05:13:10;11.05;;;5.47;;
56102;SDS011;41970;48.774;9.280;2023-04-15T05:15:36;7.30;;;5.13;;
56102;SDS011;41970;48.774;9.280;2023-04-15T05:18:05;6.60;;;5.53;;
56102;SDS011;41970;48.774;9.280;2023-04-15T05:20:31;7.80;;;5.22;;
56102;SDS011;41970;48.774;9.280;2023-04-15T05:22:57;8.67;;;5.23;;
56102;SDS011;41970;48.774;9.280;2023-04-15T05:25:22;9.47;;;6.70;;
56102;SDS011;41970;48.774;9.280;2023-04-15T05:27:48;9.10;;;5.70;;
56102;SDS011;41970;48.774;9.280;2023-04-15T05:30:14;4.88;;;4.43;;
56102;SDS011;41970;48.774;9.280;2023-04-15T05:32:40;9.13;;;5.78;;
56102;SDS011;41970;48.774;9.280;2023-04-15T05:35:06;7.20;;;5.63;;
56102;SDS011;41970;48.774;9.280;2023-04-15T05:37:32;10.98;;;7.20;;
56102;SDS011;41970;48.774;9.280;2023-04-15T05:39:58;5.30;;;4.80;;
56102;SDS011;41970;48.774;9.280;2023-04-15T05:42:24;6.90;;;4.93;;
56102;SDS011;41970;48.774;9.280;2023-04-15T05:44:50;6.57;;;5.10;;
56102;SDS011;41970;48.774;9.280;2023-04-15T05:47:15;7.13;;;5.47;;
56102;SDS011;41970;48.774;9.280;2023-04-15T05:49:41;11.53;;;6.37;;
56102;SDS011;41970;48.774;9.280;2023-04-15T05:52:07;6.40;;;5.77;;
56102;SDS011;41970;48.774;9.280;2023-04-15T05:54:33;9.30;;;5.90;;
56102;SDS011;41970;48.774;9.280;2023-04-15T05:56:58;10.07;;;6.50;;
56102;SDS011;41970;48.774;9.280;2023-04-15T05:59:25;10.63;;;7.25;;
56102;SDS011;41970;48.774;9.280;2023-04-15T06:01:51;7.47;;;5.95;;
56102;SDS011;41970;48.774;9.280;2023-04-15T06:04:16;6.27;;;5.37;;
56102;SDS011;41970;48.774;9.280;2023-04-15T06:06:42;7.27;;;5.93;;
56102;SDS011;41970;48.774;9.280;2023-04-15T06:09:08;8.98;;;6.65;;
56102;SDS011;41970;48.774;9.280;2023-04-15T06:11:34;11.43;;;6.53;;
56102;SDS011;41970;48.774;9.280;2023-04-15T06:14:00;8.77;;;6.00;;
56102;SDS011;41970;48.774;9.280;2023-04-15T06:16:26;11.63;;;7.43;;
56102;SDS011;41970;48.774;9.280;2023-04-15T06:18:51;9.13;;;5.90;;
56102;SDS011;41970;48.774;9.280;2023-04-15T06:21:17;9.70;;;7.00;;
56102;SDS011;41970;48.774;9.280;2023-04-15T06:23:43;6.47;;;4.50;;
56102;SDS011;41970;48.774;9.280;2023-04-15T06:26:09;10.20;;;5.00;;
56102;SDS011;41970;48.774;9.280;2023-04-15T06:28:35;8.10;;;4.75;;
56102;SDS011;41970;48.774;9.280;2023-04-15T06:31:01;6.17;;;5.07;;
56102;SDS011;41970;48.774;9.280;2023-04-15T06:33:27;6.20;;;4.60;;
56102;SDS011;41970;48.774;9.280;2023-04-15T06:35:53;8.83;;;4.97;;
56102;SDS011;41970;48.774;9.280;2023-04-15T06:38:18;11.03;;;5.17;;
56102;SDS011;41970;48.774;9.280;2023-04-15T06:40:44;4.97;;;3.80;;
56102;SDS011;41970;48.774;9.280;2023-04-15T06:43:10;8.73;;;3.57;;
56102;SDS011;41970;48.774;9.280;2023-04-15T06:45:36;6.77;;;4.13;;
56102;SDS011;41970;48.774;9.280;2023-04-15T06:48:02;4.50;;;4.00;;
56102;SDS011;41970;48.774;9.280;2023-04-15T06:50:28;4.10;;;3.80;;
56102;SDS011;41970;48.774;9.280;2023-04-15T06:52:54;6.07;;;3.77;;
56102;SDS011;41970;48.774;9.280;2023-04-15T06:55:21;5.07;;;3.83;;
56102;SDS011;41970;48.774;9.280;2023-04-15T06:57:47;5.97;;;4.27;;
56102;SDS011;41970;48.774;9.280;2023-04-15T07:00:13;7.20;;;5.20;;
56102;SDS011;41970;48.774;9.280;2023-04-15T07:02:39;8.77;;;6.63;;
56102;SDS011;41970;48.774;9.280;2023-04-15T07:05:05;5.00;;;4.47;;
56102;SDS011;41970;48.774;9.280;2023-04-15T07:07:31;5.37;;;4.17;;
56102;SDS011;41970;48.774;9.280;2023-04-15T07:09:57;5.20;;;4.70;;
56102;SDS011;41970;48.774;9.280;2023-04-15T07:12:23;7.67;;;4.40;;
56102;SDS011;41970;48.774;9.280;2023-04-15T07:14:49;5.13;;;4.33;;
56102;SDS011;41970;48.774;9.280;2023-04-15T07:17:14;6.07;;;4.93;;
56102;SDS011;41970;48.774;9.280;2023-04-15T07:19:40;5.73;;;4.30;;
56102;SDS011;41970;48.774;9.280;2023-04-15T07:22:06;5.87;;;4.00;;
56102;SDS011;41970;48.774;9.280;2023-04-15T07:24:32;6.83;;;4.20;;
56102;SDS011;41970;48.774;9.280;2023-04-15T07:26:57;6.53;;;3.93;;
56102;SDS011;41970;48.774;9.280;2023-04-15T07:29:24;5.07;;;4.20;;
56102;SDS011;41970;48.774;9.280;2023-04-15T07:31:50;7.13;;;4.50;;
56102;SDS011;41970;48.774;9.280;2023-04-15T07:34:16;7.33;;;5.00;;
56102;SDS011;41970;48.774;9.280;2023-04-15T07:36:43;10.97;;;5.17;;
56102;SDS011;41970;48.774;9.280;2023-04-15T07:39:10;7.30;;;4.83;;
56102;SDS011;41970;48.774;9.280;2023-04-15T07:41:36;13.00;;;5.60;;
56102;SDS011;41970;48.774;9.280;2023-04-15T07:44:02;5.00;;;3.60;;
56102;SDS011;41970;48.774;9.280;2023-04-15T07:46:28;5.27;;;3.00;;
56102;SDS011;41970;48.774;9.280;2023-04-15T07:48:53;5.93;;;3.43;;
56102;SDS011;41970;48.774;9.280;2023-04-15T07:51:19;5.23;;;4.73;;
56102;SDS011;41970;48.774;9.280;2023-04-15T07:53:46;4.70;;;3.30;;
56102;SDS011;41970;48.774;9.280;2023-04-15T07:56:12;6.07;;;4.20;;
56102;SDS011;41970;48.774;9.280;2023-04-15T07:58:38;4.93;;;3.43;;
56102;SDS011;41970;48.774;9.280;2023-04-15T08:01:04;4.20;;;3.87;;
56102;SDS011;41970;48.774;9.280;2023-04-15T08:03:30;9.03;;;4.17;;
56102;SDS011;41970;48.774;9.280;2023-04-15T08:05:57;6.33;;;3.90;;
56102;SDS011;41970;48.774;9.280;2023-04-15T08:08:23;4.43;;;3.60;;
56102;SDS011;41970;48.774;9.280;2023-04-15T08:10:49;4.20;;;3.50;;
56102;SDS011;41970;48.774;9.280;2023-04-15T08:13:15;6.23;;;3.43;;
56102;SDS011;41970;48.774;9.280;2023-04-15T08:15:41;11.33;;;3.40;;
56102;SDS011;41970;48.774;9.280;2023-04-15T08:18:07;7.07;;;4.00;;
56102;SDS011;41970;48.774;9.280;2023-04-15T08:20:33;4.00;;;3.70;;
56102;SDS011;41970;48.774;9.280;2023-04-15T08:22:59;7.30;;;3.90;;
56102;SDS011;41970;48.774;9.280;2023-04-15T08:25:24;5.33;;;4.03;;
56102;SDS011;41970;48.774;9.280;2023-04-15T08:27:51;4.20;;;3.80;;
56102;SDS011;41970;48.774;9.280;2023-04-15T08:30:19;5.07;;;4.07;;
56102;SDS011;41970;48.774;9.280;2023-04-15T08:32:45;5.17;;;4.67;;
56102;SDS011;41970;48.774;9.280;2023-04-15T08:35:11;4.00;;;3.50;;
56102;SDS011;41970;48.774;9.280;2023-04-15T08:37:38;4.93;;;3.70;;
56102;SDS011;41970;48.774;9.280;2023-04-15T08:40:03;4.20;;;3.17;;
56102;SDS011;41970;48.774;9.280;2023-04-15T08:42:30;7.20;;;4.67;;
56102;SDS011;41970;48.774;9.280;2023-04-15T08:44:59;4.30;;;3.90;;
56102;SDS011;41970;48.774;9.280;2023-04-15T08:47:29;4.47;;;3.40;;
56102;SDS011;41970;48.774;9.280;2023-04-15T08:49:58;3.57;;;3.20;;
56102;SDS011;41970;48.774;9.280;2023-04-15T08:52:25;8.33;;;3.37;;
56102;SDS011;41970;48.774;9.280;2023-04-15T08:54:54;7.37;;;4.00;;
56102;SDS011;41970;48.774;9.280;2023-04-15T08:57:26;5.93;;;3.80;;
56102;SDS011;41970;48.774;9.280;2023-04-15T08:59:54;3.77;;;3.07;;
56102;SDS011;41970;48.774;9.280;2023-04-15T09:02:21;5.90;;;4.50;;
56102;SDS011;41970;48.774;9.280;2023-04-15T09:04:49;6.57;;;3.97;;
56102;SDS011;41970;48.774;9.280;2023-04-15T09:07:14;6.27;;;3.47;;
56102;SDS011;41970;48.774;9.280;2023-04-15T09:09:40;4.80;;;3.67;;
56102;SDS011;41970;48.774;9.280;2023-04-15T09:12:07;5.43;;;3.67;;
56102;SDS011;41970;48.774;9.280;2023-04-15T09:14:33;3.83;;;3.30;;
56102;SDS011;41970;48.774;9.280;2023-04-15T09:16:59;3.70;;;2.83;;
56102;SDS011;41970;48.774;9.280;2023-04-15T09:19:29;5.47;;;4.10;;
56102;SDS011;41970;48.774;9.280;2023-04-15T09:21:58;4.23;;;3.47;;
56102;SDS011;41970;48.774;9.280;2023-04-15T09:24:24;5.77;;;3.10;;
56102;SDS011;41970;48.774;9.280;2023-04-15T09:26:57;6.27;;;3.50;;
56102;SDS011;41970;48.774;9.280;2023-04-15T09:29:24;5.37;;;3.30;;
56102;SDS011;41970;48.774;9.280;2023-04-15T09:31:52;5.37;;;3.90;;
56102;SDS011;41970;48.774;9.280;2023-04-15T09:34:18;7.03;;;4.07;;
56102;SDS011;41970;48.774;9.280;2023-04-15T09:36:53;3.73;;;3.43;;
56102;SDS011;41970;48.774;9.280;2023-04-15T09:39:20;5.77;;;3.70;;
56102;SDS011;41970;48.774;9.280;2023-04-15T09:41:46;6.57;;;4.03;;
56102;SDS011;41970;48.774;9.280;2023-04-15T09:44:22;5.30;;;4.10;;
56102;SDS011;41970;48.774;9.280;2023-04-15T09:46:51;4.40;;;3.60;;
56102;SDS011;41970;48.774;9.280;2023-04-15T09:49:16;4.87;;;4.00;;
56102;SDS011;41970;48.774;9.280;2023-04-15T09:51:43;5.83;;;3.70;;
56102;SDS011;41970;48.774;9.280;2023-04-15T09:54:09;3.50;;;3.20;;
56102;SDS011;41970;48.774;9.280;2023-04-15T09:56:41;3.40;;;3.10;;
56102;SDS011;41970;48.774;9.280;2023-04-15T09:59:07;5.50;;;3.83;;
56102;SDS011;41970;48.774;9.280;2023-04-15T10:01:33;4.33;;;3.40;;
56102;SDS011;41970;48.774;9.280;2023-04-15T10:04:04;3.27;;;2.80;;
56102;SDS011;41970;48.774;9.280;2023-04-15T10:06:30;4.10;;;3.63;;
56102;SDS011;41970;48.774;9.280;2023-04-15T10:08:59;3.70;;;3.10;;
56102;SDS011;41970;48.774;9.280;2023-04-15T10:11:28;3.87;;;3.27;;
56102;SDS011;41970;48.774;9.280;2023-04-15T10:13:55;3.20;;;2.40;;
56102;SDS011;41970;48.774;9.280;2023-04-15T10:16:22;3.67;;;3.10;;
56102;SDS011;41970;48.774;9.280;2023-04-15T10:18:53;7.67;;;3.47;;
56102;SDS011;41970;48.774;9.280;2023-04-15T10:21:20;3.30;;;3.00;;
56102;SDS011;41970;48.774;9.280;2023-04-15T10:23:46;3.30;;;3.00;;
56102;SDS011;41970;48.774;9.280;2023-04-15T10:26:12;4.63;;;3.10;;
56102;SDS011;41970;48.774;9.280;2023-04-15T10:28:39;3.57;;;3.07;;
56102;SDS011;41970;48.774;9.280;2023-04-15T10:31:05;3.57;;;3.23;;
56102;SDS011;41970;48.774;9.280;2023-04-15T10:33:32;6.23;;;2.87;;
56102;SDS011;41970;48.774;9.280;2023-04-15T10:35:59;11.50;;;4.40;;
56102;SDS011;41970;48.774;9.280;2023-04-15T10:41:14;3.10;;;2.70;;
56102;SDS011;41970;48.774;9.280;2023-04-15T10:43:48;5.20;;;3.67;;
56102;SDS011;41970;48.774;9.280;2023-04-15T10:46:22;4.60;;;3.80;;
56102;SDS011;41970;48.774;9.280;2023-04-15T10:49:12;3.53;;;3.23;;
56102;SDS011;41970;48.774;9.280;2023-04-15T10:51:44;5.27;;;2.80;;
56102;SDS011;41970;48.774;9.280;2023-04-15T10:54:14;9.20;;;3.60;;
56102;SDS011;41970;48.774;9.280;2023-04-15T10:56:50;5.30;;;3.47;;
56102;SDS011;41970;48.774;9.280;2023-04-15T10:59:17;6.90;;;3.80;;
56102;SDS011;41970;48.774;9.280;2023-04-15T11:01:49;3.30;;;2.90;;
56102;SDS011;41970;48.774;9.280;2023-04-15T11:04:59;14.30;;;5.63;;
56102;SDS011;41970;48.774;9.280;2023-04-15T11:12:38;4.00;;;3.00;;
56102;SDS011;41970;48.774;9.280;2023-04-15T11:17:54;3.53;;;3.17;;
56102;SDS011;41970;48.774;9.280;2023-04-15T11:20:21;4.00;;;3.40;;
56102;SDS011;41970;48.774;9.280;2023-04-15T11:22:51;3.70;;;3.37;;
56102;SDS011;41970;48.774;9.280;2023-04-15T11:25:28;4.47;;;4.07;;
56102;SDS011;41970;48.774;9.280;2023-04-15T11:27:58;5.93;;;3.73;;
56102;SDS011;41970;48.774;9.280;2023-04-15T11:30:26;4.43;;;3.30;;
56102;SDS011;41970;48.774;9.280;2023-04-15T11:32:56;4.97;;;4.00;;
56102;SDS011;41970;48.774;9.280;2023-04-15T11:35:23;4.30;;;4.00;;
56102;SDS011;41970;48.774;9.280;2023-04-15T11:37:49;6.20;;;3.77;;
56102;SDS011;41970;48.774;9.280;2023-04-15T11:40:22;4.03;;;3.63;;
56102;SDS011;41970;48.774;9.280;2023-04-15T11:43:05;5.20;;;3.80;;
56102;SDS011;41970;48.774;9.280;2023-04-15T11:45:54;4.70;;;4.20;;
56102;SDS011;41970;48.774;9.280;2023-04-15T11:48:22;4.60;;;3.60;;
56102;SDS011;41970;48.774;9.280;2023-04-15T11:51:10;6.73;;;4.47;;
56102;SDS011;41970;48.774;9.280;2023-04-15T11:53:41;4.80;;;4.37;;
56102;SDS011;41970;48.774;9.280;2023-04-15T11:56:09;6.67;;;5.53;;
56102;SDS011;41970;48.774;9.280;2023-04-15T11:58:40;5.90;;;4.63;;
56102;SDS011;41970;48.774;9.280;2023-04-15T12:01:07;6.00;;;4.83;;
56102;SDS011;41970;48.774;9.280;2023-04-15T12:03:43;6.47;;;4.33;;
56102;SDS011;41970;48.774;9.280;2023-04-15T12:06:20;4.73;;;4.33;;
56102;SDS011;41970;48.774;9.280;2023-04-15T12:08:58;6.40;;;3.13;;
56102;SDS011;41970;48.774;9.280;2023-04-15T12:16:43;3.83;;;3.00;;
56102;SDS011;41970;48.774;9.280;2023-04-15T12:19:14;3.83;;;3.53;;
56102;SDS011;41970;48.774;9.280;2023-04-15T12:21:47;4.03;;;2.90;;
56102;SDS011;41970;48.774;9.280;2023-04-15T12:24:13;6.20;;;3.13;;
56102;SDS011;41970;48.774;9.280;2023-04-15T12:26:53;5.93;;;3.37;;
56102;SDS011;41970;48.774;9.280;2023-04-15T12:29:25;3.83;;;3.00;;
56102;SDS011;41970;48.774;9.280;2023-04-15T12:34:42;8.40;;;4.20;;
56102;SDS011;41970;48.774;9.280;2023-04-15T12:37:18;3.63;;;3.33;;
56102;SDS011;41970;48.774;9.280;2023-04-15T12:39:45;5.20;;;4.30;;
56102;SDS011;41970;48.774;9.280;2023-04-15T12:42:15;8.73;;;4.30;;
56102;SDS011;41970;48.774;9.280;2023-04-15T12:44:42;5.13;;;4.53;;
56102;SDS011;41970;48.774;9.280;2023-04-15T12:47:09;26.50;;;6.30;;
56102;SDS011;41970;48.774;9.280;2023-04-15T12:49:36;3.53;;;3.23;;
56102;SDS011;41970;48.774;9.280;2023-04-15T12:52:03;4.50;;;4.10;;
56102;SDS011;41970;48.774;9.280;2023-04-15T12:54:30;4.23;;;3.67;;
56102;SDS011;41970;48.774;9.280;2023-04-15T12:56:56;4.20;;;2.90;;
56102;SDS011;41970;48.774;9.280;2023-04-15T12:59:22;3.60;;;2.90;;
56102;SDS011;41970;48.774;9.280;2023-04-15T13:01:48;2.97;;;2.73;;
56102;SDS011;41970;48.774;9.280;2023-04-15T13:04:15;3.53;;;3.23;;
56102;SDS011;41970;48.774;9.280;2023-04-15T13:06:41;3.20;;;2.90;;
56102;SDS011;41970;48.774;9.280;2023-04-15T13:09:07;4.10;;;2.73;;
56102;SDS011;41970;48.774;9.280;2023-04-15T13:11:33;4.60;;;3.00;;
56102;SDS011;41970;48.774;9.280;2023-04-15T13:14:05;3.03;;;2.60;;
56102;SDS011;41970;48.774;9.280;2023-04-15T13:16:32;3.70;;;2.67;;
56102;SDS011;41970;48.774;9.280;2023-04-15T13:18:59;2.60;;;2.40;;
56102;SDS011;41970;48.774;9.280;2023-04-15T13:21:25;3.23;;;2.53;;
56102;SDS011;41970;48.774;9.280;2023-04-15T13:23:51;3.03;;;2.77;;
56102;SDS011;41970;48.774;9.280;2023-04-15T13:26:18;3.50;;;2.67;;
56102;SDS011;41970;48.774;9.280;2023-04-15T13:28:44;3.00;;;2.70;;
56102;SDS011;41970;48.774;9.280;2023-04-15T13:31:10;2.93;;;2.40;;
56102;SDS011;41970;48.774;9.280;2023-04-15T13:33:36;5.13;;;3.27;;
56102;SDS011;41970;48.774;9.280;2023-04-15T13:36:02;4.20;;;2.23;;
56102;SDS011;41970;48.774;9.280;2023-04-15T13:38:27;2.57;;;2.20;;
56102;SDS011;41970;48.774;9.280;2023-04-15T13:40:53;3.30;;;3.00;;
56102;SDS011;41970;48.774;9.280;2023-04-15T13:43:19;3.70;;;3.10;;
56102;SDS011;41970;48.774;9.280;2023-04-15T13:45:45;3.30;;;2.53;;
56102;SDS011;41970;48.774;9.280;2023-04-15T13:48:11;3.17;;;2.17;;
56102;SDS011;41970;48.774;9.280;2023-04-15T13:50:37;2.23;;;2.13;;
56102;SDS011;41970;48.774;9.280;2023-04-15T13:53:03;4.23;;;1.90;;
56102;SDS011;41970;48.774;9.280;2023-04-15T13:55:29;3.17;;;2.40;;
56102;SDS011;41970;48.774;9.280;2023-04-15T13:57:55;2.90;;;2.37;;
56102;SDS011;41970;48.774;9.280;2023-04-15T14:00:21;2.73;;;2.00;;
56102;SDS011;41970;48.774;9.280;2023-04-15T14:02:47;1.60;;;1.50;;
56102;SDS011;41970;48.774;9.280;2023-04-15T14:05:12;1.50;;;1.40;;
56102;SDS011;41970;48.774;9.280;2023-04-15T14:07:38;4.50;;;1.97;;
56102;SDS011;41970;48.774;9.280;2023-04-15T14:10:05;1.50;;;1.40;;
56102;SDS011;41970;48.774;9.280;2023-04-15T14:12:31;1.40;;;1.30;;
56102;SDS011;41970;48.774;9.280;2023-04-15T14:14:57;1.73;;;1.50;;
56102;SDS011;41970;48.774;9.280;2023-04-15T14:17:22;2.00;;;1.80;;
56102;SDS011;41970;48.774;9.280;2023-04-15T14:19:48;1.63;;;1.53;;
56102;SDS011;41970;48.774;9.280;2023-04-15T14:22:14;3.40;;;1.80;;
56102;SDS011;41970;48.774;9.280;2023-04-15T14:24:41;1.37;;;1.20;;
56102;SDS011;41970;48.774;9.280;2023-04-15T14:27:06;1.50;;;1.40;;
56102;SDS011;41970;48.774;9.280;2023-04-15T14:29:32;1.33;;;1.23;;
56102;SDS011;41970;48.774;9.280;2023-04-15T14:31:59;2.70;;;1.73;;
56102;SDS011;41970;48.774;9.280;2023-04-15T14:34:24;3.83;;;1.70;;
56102;SDS011;41970;48.774;9.280;2023-04-15T14:36:50;2.63;;;1.37;;
56102;SDS011;41970;48.774;9.280;2023-04-15T14:39:19;1.80;;;1.53;;
56102;SDS011;41970;48.774;9.280;2023-04-15T14:41:45;5.67;;;2.17;;
56102;SDS011;41970;48.774;9.280;2023-04-15T14:44:11;1.70;;;1.60;;
56102;SDS011;41970;48.774;9.280;2023-04-15T14:46:37;2.60;;;1.53;;
56102;SDS011;41970;48.774;9.280;2023-04-15T14:49:04;1.57;;;1.47;;
56102;SDS011;41970;48.774;9.280;2023-04-15T14:51:30;2.07;;;1.80;;
56102;SDS011;41970;48.774;9.280;2023-04-15T14:53:56;2.70;;;1.37;;
56102;SDS011;41970;48.774;9.280;2023-04-15T14:56:22;2.83;;;1.53;;
56102;SDS011;41970;48.774;9.280;2023-04-15T14:58:48;2.53;;;1.50;;
56102;SDS011;41970;48.774;9.280;2023-04-15T15:01:17;1.27;;;1.17;;
56102;SDS011;41970;48.774;9.280;2023-04-15T15:03:43;4.70;;;1.47;;
56102;SDS011;41970;48.774;9.280;2023-04-15T15:06:08;3.00;;;1.67;;